createdAt,value
2023-05-01T00:00:43.079Z,12.02
2023-05-01T00:01:43.070Z,12.02
2023-05-01T00:02:43.131Z,11.98
2023-05-01T00:03:43.367Z,11.95
2023-05-01T00:04:43.139Z,11.95
2023-05-01T00:05:43.037Z,11.91
2023-05-01T00:06:43.031Z,11.85
2023-05-01T00:07:42.994Z,11.79
2023-05-01T00:08:42.983Z,11.76
2023-05-01T00:09:42.973Z,11.70
2023-05-01T00:10:42.980Z,11.67
2023-05-01T00:11:42.936Z,11.64
2023-05-01T00:12:42.975Z,11.61
2023-05-01T00:13:42.928Z,11.60
2023-05-01T00:14:42.939Z,11.55
2023-05-01T00:15:42.932Z,11.57
2023-05-01T00:16:42.892Z,11.52
2023-05-01T00:17:42.918Z,11.51
2023-05-01T00:18:42.872Z,11.49
2023-05-01T00:19:42.898Z,11.46
2023-05-01T00:20:42.827Z,11.40
2023-05-01T00:21:42.829Z,11.36
2023-05-01T00:22:42.816Z,11.35
2023-05-01T00:23:42.808Z,11.32
2023-05-01T00:24:42.809Z,11.29
2023-05-01T00:25:42.796Z,11.24
2023-05-01T00:26:42.764Z,11.19
2023-05-01T00:27:42.776Z,11.18
2023-05-01T00:28:42.781Z,11.14
2023-05-01T00:29:42.764Z,11.11
2023-05-01T00:30:42.740Z,11.11
2023-05-01T00:31:42.870Z,11.09
2023-05-01T00:32:42.746Z,11.06
2023-05-01T00:33:42.729Z,11.06
2023-05-01T00:34:42.709Z,11.00
2023-05-01T00:35:42.681Z,10.99
2023-05-01T00:36:42.675Z,10.96
2023-05-01T00:37:42.660Z,10.96
2023-05-01T00:38:42.642Z,10.92
2023-05-01T00:39:42.684Z,10.94
2023-05-01T00:40:42.619Z,10.89
2023-05-01T00:41:42.645Z,10.86
2023-05-01T00:42:42.616Z,10.85
2023-05-01T00:43:42.579Z,10.81
2023-05-01T00:44:42.627Z,10.79
2023-05-01T00:45:42.575Z,10.78
2023-05-01T00:46:42.569Z,10.71
2023-05-01T00:47:43.323Z,10.67
2023-05-01T00:48:42.544Z,10.64
2023-05-01T00:49:42.514Z,10.63
2023-05-01T00:50:42.514Z,10.63
2023-05-01T00:51:42.488Z,10.64
2023-05-01T00:52:42.531Z,10.56
2023-05-01T00:53:42.481Z,10.52
2023-05-01T00:54:42.469Z,10.48
2023-05-01T00:55:42.468Z,10.44
2023-05-01T00:56:42.444Z,10.42
2023-05-01T00:57:42.464Z,10.40
2023-05-01T00:58:42.432Z,10.36
2023-05-01T00:59:42.445Z,10.34
2023-05-01T01:00:42.387Z,10.34
2023-05-01T01:01:45.226Z,10.36
2023-05-01T01:02:42.401Z,10.34
2023-05-01T01:03:42.366Z,10.34
2023-05-01T01:04:42.419Z,10.32
2023-05-01T01:05:42.359Z,10.30
2023-05-01T01:06:42.403Z,10.33
2023-05-01T01:07:42.344Z,10.34
2023-05-01T01:08:42.323Z,10.34
2023-05-01T01:09:42.309Z,10.33
2023-05-01T01:10:42.277Z,10.36
2023-05-01T01:11:42.277Z,10.34
2023-05-01T01:12:42.312Z,10.33
2023-05-01T01:13:42.267Z,10.29
2023-05-01T01:14:42.251Z,10.30
2023-05-01T01:15:42.236Z,10.30
2023-05-01T01:16:42.291Z,10.30
2023-05-01T01:17:42.265Z,10.29
2023-05-01T01:18:42.195Z,10.29
2023-05-01T01:19:42.195Z,10.26
2023-05-01T01:20:42.189Z,10.23
2023-05-01T01:21:42.144Z,10.25
2023-05-01T01:22:42.136Z,10.23
2023-05-01T01:23:42.267Z,10.20
2023-05-01T01:24:42.116Z,10.18
2023-05-01T01:25:42.105Z,10.17
2023-05-01T01:26:42.113Z,10.14
2023-05-01T01:27:42.071Z,10.15
2023-05-01T01:28:42.076Z,10.17
2023-05-01T01:29:42.119Z,10.20
2023-05-01T01:30:42.081Z,10.20
2023-05-01T01:31:42.162Z,10.20
2023-05-01T01:32:42.046Z,10.17
2023-05-01T01:33:42.025Z,10.15
2023-05-01T01:34:42.020Z,10.15
2023-05-01T01:35:41.979Z,10.14
2023-05-01T01:36:50.399Z,10.17
2023-05-01T01:37:50.371Z,10.20
2023-05-01T01:38:41.954Z,10.23
2023-05-01T01:39:51.222Z,10.23
2023-05-01T01:40:50.302Z,10.25
2023-05-01T01:41:41.902Z,10.27
2023-05-01T01:42:43.939Z,10.30
2023-05-01T01:43:41.890Z,10.30
2023-05-01T01:44:44.617Z,10.33
2023-05-01T01:45:41.878Z,10.32
2023-05-01T01:46:41.888Z,10.30
2023-05-01T01:47:42.064Z,10.29
2023-05-01T01:48:41.871Z,10.30
2023-05-01T01:49:41.882Z,10.32
2023-05-01T01:50:41.866Z,10.34
2023-05-01T01:51:41.828Z,10.40
2023-05-01T01:52:41.823Z,10.41
2023-05-01T01:53:41.814Z,10.42
2023-05-01T01:54:41.787Z,10.41
2023-05-01T01:55:41.779Z,10.41
2023-05-01T01:56:41.762Z,10.41
2023-05-01T01:57:41.751Z,10.41
2023-05-01T01:58:42.657Z,10.41
2023-05-01T01:59:41.744Z,10.42
2023-05-01T02:00:41.792Z,10.42
2023-05-01T02:01:41.784Z,10.45
2023-05-01T02:02:41.845Z,10.45
2023-05-01T02:03:41.822Z,10.44
2023-05-01T02:04:41.685Z,10.45
2023-05-01T02:05:41.657Z,10.51
2023-05-01T02:06:41.770Z,10.51
2023-05-01T02:07:41.666Z,10.52
2023-05-01T02:08:41.637Z,10.53
2023-05-01T02:09:41.618Z,10.52
2023-05-01T02:10:41.671Z,10.56
2023-05-01T02:11:41.609Z,10.55
2023-05-01T02:12:41.589Z,10.56
2023-05-01T02:13:41.581Z,10.59
2023-05-01T02:14:41.548Z,10.60
2023-05-01T02:15:41.693Z,10.56
2023-05-01T02:16:41.578Z,10.55
2023-05-01T02:17:41.573Z,10.53
2023-05-01T02:18:41.576Z,10.52
2023-05-01T02:19:41.514Z,10.51
2023-05-01T02:20:42.598Z,10.51
2023-05-01T02:21:41.481Z,10.51
2023-05-01T02:22:41.475Z,10.48
2023-05-01T02:23:41.461Z,10.47
2023-05-01T02:24:41.466Z,10.44
2023-05-01T02:25:41.438Z,10.40
2023-05-01T02:26:41.436Z,10.38
2023-05-01T02:27:41.413Z,10.38
2023-05-01T02:28:41.450Z,10.42
2023-05-01T02:29:41.423Z,10.42
2023-05-01T02:30:41.415Z,10.44
2023-05-01T02:31:41.734Z,10.44
2023-05-01T02:32:41.410Z,10.42
2023-05-01T02:33:41.388Z,10.42
2023-05-01T02:34:41.324Z,10.41
2023-05-01T02:35:41.340Z,10.42
2023-05-01T02:36:41.325Z,10.42
2023-05-01T02:37:41.295Z,10.41
2023-05-01T02:38:41.309Z,10.41
2023-05-01T02:39:41.299Z,10.42
2023-05-01T02:40:41.355Z,10.42
2023-05-01T02:41:41.313Z,10.41
2023-05-01T02:42:41.271Z,10.41
2023-05-01T02:43:41.259Z,10.41
2023-05-01T02:44:41.222Z,10.40
2023-05-01T02:45:41.241Z,10.44
2023-05-01T02:46:41.290Z,10.45
2023-05-01T02:47:41.240Z,10.45
2023-05-01T02:48:41.210Z,10.51
2023-05-01T02:49:41.183Z,10.48
2023-05-01T02:50:41.272Z,10.51
2023-05-01T02:51:41.534Z,10.53
2023-05-01T02:52:41.145Z,10.53
2023-05-01T02:53:41.149Z,10.56
2023-05-01T02:54:41.156Z,10.59
2023-05-01T02:55:41.098Z,10.59
2023-05-01T02:56:41.117Z,10.56
2023-05-01T02:57:41.085Z,10.56
2023-05-01T02:58:41.157Z,10.56
2023-05-01T02:59:41.096Z,10.55
2023-05-01T03:00:41.061Z,10.60
2023-05-01T03:01:41.432Z,10.60
2023-05-01T03:02:41.076Z,10.60
2023-05-01T03:03:41.029Z,10.59
2023-05-01T03:04:41.070Z,10.61
2023-05-01T03:05:40.994Z,10.61
2023-05-01T03:06:41.019Z,10.64
2023-05-01T03:07:40.967Z,10.64
2023-05-01T03:08:40.968Z,10.64
2023-05-01T03:09:41.283Z,10.66
2023-05-01T03:10:40.975Z,10.66
2023-05-01T03:11:40.915Z,10.67
2023-05-01T03:12:40.909Z,10.67
2023-05-01T03:13:40.913Z,10.68
2023-05-01T03:14:40.898Z,10.70
2023-05-01T03:15:40.890Z,10.68
2023-05-01T03:16:40.904Z,10.68
2023-05-01T03:17:40.912Z,10.67
2023-05-01T03:18:40.851Z,10.66
2023-05-01T03:19:40.829Z,10.66
2023-05-01T03:20:40.840Z,10.64
2023-05-01T03:21:40.822Z,10.64
2023-05-01T03:22:40.792Z,10.64
2023-05-01T03:23:40.808Z,10.63
2023-05-01T03:24:40.812Z,10.60
2023-05-01T03:25:40.762Z,10.59
2023-05-01T03:26:40.774Z,10.59
2023-05-01T03:27:40.852Z,10.56
2023-05-01T03:28:40.775Z,10.55
2023-05-01T03:29:40.745Z,10.52
2023-05-01T03:30:49.077Z,10.52
2023-05-01T03:31:40.726Z,10.53
2023-05-01T03:32:40.724Z,10.51
2023-05-01T03:33:40.672Z,10.48
2023-05-01T03:34:40.666Z,10.51
2023-05-01T03:35:40.713Z,10.51
2023-05-01T03:36:40.675Z,10.51
2023-05-01T03:37:40.616Z,10.51
2023-05-01T03:38:40.657Z,10.48
2023-05-01T03:39:40.597Z,10.47
2023-05-01T03:40:40.603Z,10.47
2023-05-01T03:41:40.640Z,10.45
2023-05-01T03:42:40.572Z,10.42
2023-05-01T03:43:40.593Z,10.41
2023-05-01T03:44:40.556Z,10.40
2023-05-01T03:45:41.713Z,10.38
2023-05-01T03:46:40.697Z,10.34
2023-05-01T03:47:40.566Z,10.34
2023-05-01T03:48:40.526Z,10.34
2023-05-01T03:49:40.491Z,10.32
2023-05-01T03:50:40.480Z,10.30
2023-05-01T03:51:40.482Z,10.30
2023-05-01T03:52:40.492Z,10.27
2023-05-01T03:53:40.454Z,10.26
2023-05-01T03:54:40.441Z,10.23
2023-05-01T03:55:40.425Z,10.23
2023-05-01T03:56:40.422Z,10.22
2023-05-01T03:57:40.402Z,10.22
2023-05-01T03:58:40.411Z,10.22
2023-05-01T03:59:40.394Z,10.20
2023-05-01T04:00:40.449Z,10.20
2023-05-01T04:01:40.372Z,10.17
2023-05-01T04:02:40.448Z,10.18
2023-05-01T04:03:40.444Z,10.17
2023-05-01T04:04:40.740Z,10.17
2023-05-01T04:05:40.317Z,10.20
2023-05-01T04:06:40.380Z,10.22
2023-05-01T04:07:40.342Z,10.23
2023-05-01T04:08:40.286Z,10.23
2023-05-01T04:09:40.274Z,10.23
2023-05-01T04:10:40.260Z,10.25
2023-05-01T04:11:40.240Z,10.22
2023-05-01T04:12:40.240Z,10.20
2023-05-01T04:13:40.214Z,10.20
2023-05-01T04:14:40.212Z,10.18
2023-05-01T04:15:40.336Z,10.23
2023-05-01T04:16:40.267Z,10.22
2023-05-01T04:17:40.212Z,10.22
2023-05-01T04:18:40.209Z,10.23
2023-05-01T04:19:40.149Z,10.22
2023-05-01T04:20:40.169Z,10.20
2023-05-01T04:21:40.136Z,10.20
2023-05-01T04:22:40.132Z,10.18
2023-05-01T04:23:40.121Z,10.20
2023-05-01T04:24:40.092Z,10.18
2023-05-01T04:25:40.091Z,10.18
2023-05-01T04:26:40.106Z,10.20
2023-05-01T04:27:40.080Z,10.20
2023-05-01T04:28:40.097Z,10.18
2023-05-01T04:29:40.056Z,10.18
2023-05-01T04:30:40.068Z,10.20
2023-05-01T04:31:40.133Z,10.22
2023-05-01T04:32:40.092Z,10.20
2023-05-01T04:33:40.020Z,10.20
2023-05-01T04:34:39.980Z,10.23
2023-05-01T04:35:39.975Z,10.22
2023-05-01T04:36:39.966Z,10.22
2023-05-01T04:37:39.969Z,10.23
2023-05-01T04:38:39.972Z,10.26
2023-05-01T04:39:39.927Z,10.26
2023-05-01T04:40:39.905Z,10.27
2023-05-01T04:41:39.983Z,10.30
2023-05-01T04:42:39.905Z,10.30
2023-05-01T04:43:39.898Z,10.33
2023-05-01T04:44:39.935Z,10.36
2023-05-01T04:45:39.866Z,10.41
2023-05-01T04:46:39.907Z,10.42
2023-05-01T04:47:39.882Z,10.47
2023-05-01T04:48:39.862Z,10.47
2023-05-01T04:49:39.819Z,10.48
2023-05-01T04:50:39.811Z,10.53
2023-05-01T04:51:39.803Z,10.53
2023-05-01T04:52:39.797Z,10.56
2023-05-01T04:53:39.805Z,10.56
2023-05-01T04:54:39.754Z,10.59
2023-05-01T04:55:39.757Z,10.59
2023-05-01T04:56:39.738Z,10.60
2023-05-01T04:57:39.729Z,10.61
2023-05-01T04:58:39.728Z,10.64
2023-05-01T04:59:39.717Z,10.66
2023-05-01T05:00:39.679Z,10.68
2023-05-01T05:01:39.721Z,10.67
2023-05-01T05:02:39.777Z,10.70
2023-05-01T05:03:39.725Z,10.73
2023-05-01T05:04:39.672Z,10.74
2023-05-01T05:05:39.647Z,10.76
2023-05-01T05:06:39.670Z,10.81
2023-05-01T05:07:39.629Z,10.82
2023-05-01T05:08:39.645Z,10.85
2023-05-01T05:09:39.606Z,10.85
2023-05-01T05:10:39.613Z,10.89
2023-05-01T05:11:40.536Z,10.94
2023-05-01T05:12:39.578Z,10.97
2023-05-01T05:13:39.586Z,11.00
2023-05-01T05:14:47.397Z,11.02
2023-05-01T05:15:39.496Z,11.03
2023-05-01T05:16:39.557Z,11.07
2023-05-01T05:17:47.904Z,11.10
2023-05-01T05:18:39.485Z,11.17
2023-05-01T05:19:39.454Z,11.19
2023-05-01T05:20:39.453Z,11.24
2023-05-01T05:21:39.461Z,11.28
2023-05-01T05:22:39.457Z,11.33
2023-05-01T05:23:39.444Z,11.33
2023-05-01T05:24:40.607Z,11.36
2023-05-01T05:25:40.199Z,11.39
2023-05-01T05:26:39.408Z,11.43
2023-05-01T05:27:39.705Z,11.46
2023-05-01T05:28:39.399Z,11.51
2023-05-01T05:29:39.375Z,11.55
2023-05-01T05:30:39.381Z,11.55
2023-05-01T05:31:39.366Z,11.60
2023-05-01T05:32:39.347Z,11.65
2023-05-01T05:33:39.372Z,11.70
2023-05-01T05:34:39.308Z,11.72
2023-05-01T05:35:39.328Z,11.75
2023-05-01T05:36:39.284Z,11.79
2023-05-01T05:37:39.574Z,11.82
2023-05-01T05:38:39.289Z,11.88
2023-05-01T05:39:39.285Z,11.94
2023-05-01T05:40:39.249Z,11.99
2023-05-01T05:41:39.237Z,12.05
2023-05-01T05:42:39.229Z,12.13
2023-05-01T05:43:39.239Z,12.20
2023-05-01T05:44:39.213Z,12.28
2023-05-01T05:45:39.275Z,12.32
2023-05-01T05:46:39.221Z,12.38
2023-05-01T05:47:39.203Z,12.42
2023-05-01T05:48:39.180Z,12.50
2023-05-01T05:49:39.165Z,12.57
2023-05-01T05:50:39.121Z,12.64
2023-05-01T05:51:39.154Z,12.70
2023-05-01T05:52:39.114Z,12.77
2023-05-01T05:53:39.140Z,12.85
2023-05-01T05:54:39.104Z,12.87
2023-05-01T05:55:39.089Z,12.90
2023-05-01T05:56:39.085Z,12.92
2023-05-01T05:57:39.052Z,12.95
2023-05-01T05:58:39.066Z,12.97
2023-05-01T05:59:39.043Z,13.01
2023-05-01T06:00:39.008Z,13.05
2023-05-01T06:01:39.040Z,13.08
2023-05-01T06:02:39.090Z,13.10
2023-05-01T06:03:39.274Z,13.11
2023-05-01T06:04:38.984Z,13.12
2023-05-01T06:05:38.966Z,13.11
2023-05-01T06:06:39.017Z,13.12
2023-05-01T06:07:38.935Z,13.14
2023-05-01T06:08:38.937Z,13.14
2023-05-01T06:09:38.952Z,13.15
2023-05-01T06:10:38.897Z,13.15
2023-05-01T06:11:38.892Z,13.19
2023-05-01T06:12:39.778Z,13.22
2023-05-01T06:13:39.889Z,13.25
2023-05-01T06:14:38.862Z,13.26
2023-05-01T06:15:38.923Z,13.30
2023-05-01T06:16:38.941Z,13.26
2023-05-01T06:17:38.878Z,13.26
2023-05-01T06:18:38.840Z,13.29
2023-05-01T06:19:38.797Z,13.33
2023-05-01T06:20:38.794Z,13.39
2023-05-01T06:21:38.799Z,13.45
2023-05-01T06:22:38.772Z,13.46
2023-05-01T06:23:38.757Z,13.49
2023-05-01T06:24:38.750Z,13.55
2023-05-01T06:25:38.831Z,13.59
2023-05-01T06:26:38.725Z,13.62
2023-05-01T06:27:38.706Z,13.67
2023-05-01T06:28:38.737Z,13.70
2023-05-01T06:29:38.732Z,13.75
2023-05-01T06:30:38.668Z,13.67
2023-05-01T06:31:38.698Z,13.69
2023-05-01T06:32:38.708Z,13.71
2023-05-01T06:33:38.669Z,13.78
2023-05-01T06:34:38.625Z,13.79
2023-05-01T06:35:38.613Z,13.81
2023-05-01T06:36:38.608Z,13.84
2023-05-01T06:37:40.440Z,13.87
2023-05-01T06:38:38.595Z,13.85
2023-05-01T06:39:38.577Z,13.82
2023-05-01T06:40:38.598Z,13.82
2023-05-01T06:41:38.549Z,13.84
2023-05-01T06:42:38.549Z,13.85
2023-05-01T06:43:38.538Z,13.87
2023-05-01T06:44:38.548Z,13.89
2023-05-01T06:45:38.535Z,13.89
2023-05-01T06:46:38.496Z,13.92
2023-05-01T06:47:38.626Z,13.96
2023-05-01T06:48:38.495Z,13.95
2023-05-01T06:49:38.473Z,13.96
2023-05-01T06:50:38.444Z,13.92
2023-05-01T06:51:38.433Z,13.96
2023-05-01T06:52:38.428Z,13.96
2023-05-01T06:53:38.429Z,13.96
2023-05-01T06:54:38.433Z,13.99
2023-05-01T06:55:38.371Z,13.99
2023-05-01T06:56:38.388Z,13.92
2023-05-01T06:57:38.354Z,13.92
2023-05-01T06:58:38.359Z,13.96
2023-05-01T06:59:40.313Z,13.99
2023-05-01T07:00:38.333Z,14.02
2023-05-01T07:01:38.347Z,14.02
2023-05-01T07:02:38.522Z,14.03
2023-05-01T07:03:38.672Z,14.03
2023-05-01T07:04:38.326Z,14.03
2023-05-01T07:05:38.261Z,14.06
2023-05-01T07:06:48.259Z,14.07
2023-05-01T07:07:42.288Z,14.10
2023-05-01T07:08:39.242Z,14.17
2023-05-01T07:09:46.600Z,14.18
2023-05-01T07:10:39.881Z,14.22
2023-05-01T07:11:38.192Z,14.17
2023-05-01T07:12:38.173Z,14.18
2023-05-01T07:13:38.186Z,14.21
2023-05-01T07:14:38.223Z,14.27
2023-05-01T07:15:40.896Z,14.37
2023-05-01T07:16:38.203Z,14.40
2023-05-01T07:17:38.180Z,14.45
2023-05-01T07:18:38.163Z,14.47
2023-05-01T07:19:38.132Z,14.50
2023-05-01T07:20:38.138Z,14.45
2023-05-01T07:21:38.085Z,14.42
2023-05-01T07:22:38.069Z,14.36
2023-05-01T07:23:38.101Z,14.36
2023-05-01T07:24:38.053Z,14.35
2023-05-01T07:25:38.052Z,14.36
2023-05-01T07:26:38.061Z,14.36
2023-05-01T07:27:38.049Z,14.39
2023-05-01T07:28:38.021Z,14.37
2023-05-01T07:29:37.994Z,14.36
2023-05-01T07:30:38.007Z,14.32
2023-05-01T07:31:38.057Z,14.35
2023-05-01T07:32:38.005Z,14.37
2023-05-01T07:33:38.035Z,14.42
2023-05-01T07:34:37.941Z,14.35
2023-05-01T07:35:38.013Z,14.33
2023-05-01T07:36:37.907Z,14.35
2023-05-01T07:37:37.893Z,14.36
2023-05-01T07:38:37.939Z,14.28
2023-05-01T07:39:37.886Z,14.33
2023-05-01T07:40:37.898Z,14.32
2023-05-01T07:41:37.876Z,14.33
2023-05-01T07:42:37.845Z,14.29
2023-05-01T07:43:37.837Z,14.33
2023-05-01T07:44:37.837Z,14.36
2023-05-01T07:45:37.859Z,14.37
2023-05-01T07:46:38.032Z,14.40
2023-05-01T07:47:37.887Z,14.46
2023-05-01T07:48:39.026Z,14.52
2023-05-01T07:49:37.793Z,14.58
2023-05-01T07:50:37.754Z,14.64
2023-05-01T07:51:37.733Z,14.70
2023-05-01T07:52:37.753Z,14.75
2023-05-01T07:53:37.751Z,14.83
2023-05-01T07:54:37.706Z,14.89
2023-05-01T07:55:37.770Z,14.89
2023-05-01T07:56:37.680Z,14.92
2023-05-01T07:57:37.698Z,14.98
2023-05-01T07:58:37.734Z,14.98
2023-05-01T07:59:37.674Z,14.96
2023-05-01T08:00:37.648Z,14.99
2023-05-01T08:01:37.724Z,15.06
2023-05-01T08:02:37.783Z,15.10
2023-05-01T08:03:37.857Z,15.14
2023-05-01T08:04:37.684Z,15.17
2023-05-01T08:05:37.572Z,15.14
2023-05-01T08:06:37.662Z,15.14
2023-05-01T08:07:37.567Z,15.20
2023-05-01T08:08:37.572Z,15.23
2023-05-01T08:09:37.575Z,15.29
2023-05-01T08:10:37.524Z,15.31
2023-05-01T08:11:37.544Z,15.36
2023-05-01T08:12:37.511Z,15.41
2023-05-01T08:13:37.635Z,15.39
2023-05-01T08:14:37.492Z,15.38
2023-05-01T08:15:37.510Z,15.41
2023-05-01T08:16:37.461Z,15.46
2023-05-01T08:17:37.591Z,15.49
2023-05-01T08:18:37.452Z,15.54
2023-05-01T08:19:37.429Z,15.60
2023-05-01T08:20:37.432Z,15.69
2023-05-01T08:21:42.351Z,15.74
2023-05-01T08:22:37.408Z,15.76
2023-05-01T08:23:38.481Z,15.75
2023-05-01T08:24:37.381Z,15.74
2023-05-01T08:25:37.411Z,15.72
2023-05-01T08:26:37.343Z,15.72
2023-05-01T08:27:37.819Z,15.75
2023-05-01T08:28:37.376Z,15.72
2023-05-01T08:29:37.297Z,15.67
2023-05-01T08:30:37.333Z,15.60
2023-05-01T08:31:37.361Z,15.69
2023-05-01T08:32:37.387Z,15.83
2023-05-01T08:33:38.070Z,15.96
2023-05-01T08:34:37.261Z,16.04
2023-05-01T08:35:37.251Z,16.09
2023-05-01T08:36:37.276Z,16.15
2023-05-01T08:37:37.255Z,16.24
2023-05-01T08:38:41.260Z,16.25
2023-05-01T08:39:37.199Z,16.31
2023-05-01T08:40:37.198Z,16.35
2023-05-01T08:41:37.186Z,16.39
2023-05-01T08:42:37.180Z,16.41
2023-05-01T08:43:37.225Z,16.42
2023-05-01T08:44:37.144Z,16.48
2023-05-01T08:45:37.137Z,16.42
2023-05-01T08:46:37.177Z,16.41
2023-05-01T08:47:37.183Z,16.41
2023-05-01T08:48:37.107Z,16.39
2023-05-01T08:49:37.077Z,16.41
2023-05-01T08:50:37.091Z,16.46
2023-05-01T08:51:37.084Z,16.52
2023-05-01T08:52:37.095Z,16.50
2023-05-01T08:53:37.113Z,16.56
2023-05-01T08:54:39.882Z,16.57
2023-05-01T08:55:45.367Z,16.63
2023-05-01T08:56:44.710Z,16.67
2023-05-01T08:57:36.985Z,16.75
2023-05-01T08:58:36.974Z,16.76
2023-05-01T08:59:44.353Z,16.81
2023-05-01T09:00:36.975Z,16.86
2023-05-01T09:01:36.977Z,16.94
2023-05-01T09:02:37.022Z,17.06
2023-05-01T09:03:36.986Z,17.04
2023-05-01T09:04:36.935Z,17.06
2023-05-01T09:05:36.896Z,17.14
2023-05-01T09:06:37.017Z,17.25
2023-05-01T09:07:36.932Z,17.37
2023-05-01T09:08:36.914Z,17.43
2023-05-01T09:09:36.906Z,17.49
2023-05-01T09:10:36.898Z,17.54
2023-05-01T09:11:36.860Z,17.52
2023-05-01T09:12:36.920Z,17.58
2023-05-01T09:13:40.723Z,17.64
2023-05-01T09:14:36.853Z,17.71
2023-05-01T09:15:36.800Z,17.82
2023-05-01T09:16:36.867Z,17.90
2023-05-01T09:17:36.848Z,17.93
2023-05-01T09:18:36.774Z,17.92
2023-05-01T09:19:36.753Z,17.96
2023-05-01T09:20:36.727Z,18.00
2023-05-01T09:21:36.880Z,18.03
2023-05-01T09:22:36.736Z,18.11
2023-05-01T09:23:36.729Z,18.15
2023-05-01T09:24:36.809Z,18.15
2023-05-01T09:25:36.666Z,18.14
2023-05-01T09:26:36.694Z,18.11
2023-05-01T09:27:36.698Z,18.18
2023-05-01T09:28:36.639Z,18.21
2023-05-01T09:29:36.615Z,18.27
2023-05-01T09:31:36.605Z,18.17
2023-05-01T09:32:36.648Z,18.29
2023-05-01T09:33:36.666Z,18.36
2023-05-01T09:34:36.572Z,18.39
2023-05-01T09:35:36.553Z,18.51
2023-05-01T09:36:36.534Z,18.63
2023-05-01T09:37:36.599Z,18.62
2023-05-01T09:38:36.546Z,18.55
2023-05-01T09:39:36.525Z,18.58
2023-05-01T09:40:36.529Z,18.65
2023-05-01T09:41:36.504Z,18.65
2023-05-01T09:42:36.505Z,18.69
2023-05-01T09:43:36.527Z,18.75
2023-05-01T09:44:36.525Z,18.81
2023-05-01T09:45:36.439Z,18.91
2023-05-01T09:46:36.961Z,18.87
2023-05-01T09:47:36.406Z,18.78
2023-05-01T09:48:36.486Z,18.90
2023-05-01T09:49:36.410Z,18.94
2023-05-01T09:50:36.392Z,18.98
2023-05-01T09:51:36.530Z,19.02
2023-05-01T09:52:36.468Z,19.10
2023-05-01T09:53:36.385Z,19.26
2023-05-01T09:54:36.384Z,19.31
2023-05-01T09:55:36.333Z,19.29
2023-05-01T09:56:36.313Z,19.37
2023-05-01T09:57:36.319Z,19.46
2023-05-01T09:58:36.360Z,19.46
2023-05-01T09:59:36.292Z,19.61
2023-05-01T10:00:36.312Z,19.56
2023-05-01T10:01:36.324Z,19.65
2023-05-01T10:02:36.398Z,19.73
2023-05-01T10:03:36.416Z,19.68
2023-05-01T10:04:37.001Z,19.66
2023-05-01T10:05:36.246Z,19.76
2023-05-01T10:06:36.276Z,19.84
2023-05-01T10:07:36.231Z,19.99
2023-05-01T10:08:36.256Z,20.11
2023-05-01T10:09:36.207Z,19.94
2023-05-01T10:10:36.200Z,19.98
2023-05-01T10:11:36.221Z,20.02
2023-05-01T10:12:36.161Z,20.11
2023-05-01T10:13:36.162Z,20.17
2023-05-01T10:14:36.112Z,19.96
2023-05-01T10:15:36.120Z,20.05
2023-05-01T10:16:36.207Z,20.14
2023-05-01T10:17:36.134Z,20.28
2023-05-01T10:18:36.083Z,20.42
2023-05-01T10:19:36.106Z,20.47
2023-05-01T10:20:36.071Z,20.55
2023-05-01T10:21:36.093Z,20.61
2023-05-01T10:22:36.069Z,20.66
2023-05-01T10:23:36.029Z,20.50
2023-05-01T10:24:36.026Z,20.52
2023-05-01T10:25:36.012Z,20.62
2023-05-01T10:26:36.028Z,20.73
2023-05-01T10:27:35.991Z,20.82
2023-05-01T10:28:36.015Z,20.91
2023-05-01T10:29:35.959Z,20.77
2023-05-01T10:30:35.947Z,20.76
2023-05-01T10:31:36.185Z,20.73
2023-05-01T10:32:35.963Z,20.79
2023-05-01T10:33:35.935Z,20.77
2023-05-01T10:34:35.950Z,20.59
2023-05-01T10:35:35.890Z,20.54
2023-05-01T10:36:35.909Z,20.61
2023-05-01T10:37:35.867Z,20.54
2023-05-01T10:38:35.938Z,20.67
2023-05-01T10:39:35.835Z,20.91
2023-05-01T10:40:36.011Z,20.66
2023-05-01T10:41:35.849Z,20.70
2023-05-01T10:42:35.810Z,20.73
2023-05-01T10:43:35.952Z,20.85
2023-05-01T10:44:35.802Z,20.80
2023-05-01T10:45:36.038Z,20.77
2023-05-01T10:46:35.838Z,20.79
2023-05-01T10:47:43.218Z,20.82
2023-05-01T10:48:35.736Z,20.79
2023-05-01T10:49:43.121Z,20.64
2023-05-01T10:50:35.711Z,20.62
2023-05-01T10:51:35.717Z,20.72
2023-05-01T10:52:35.716Z,20.54
2023-05-01T10:53:35.668Z,20.48
2023-05-01T10:54:35.702Z,20.51
2023-05-01T10:58:12.752Z,20.51
2023-05-01T10:59:12.734Z,20.50
2023-05-01T11:00:12.716Z,20.29
2023-05-01T11:01:12.685Z,20.38
2023-05-01T11:02:12.725Z,20.48
2023-05-01T11:03:12.759Z,20.43
2023-05-01T11:04:12.658Z,20.38
2023-05-01T11:05:12.688Z,20.42
2023-05-01T11:06:12.805Z,20.21
2023-05-01T11:07:12.734Z,20.20
2023-05-01T11:08:12.644Z,20.13
2023-05-01T11:09:12.635Z,20.14
2023-05-01T11:10:12.606Z,20.03
2023-05-01T11:11:12.621Z,19.98
2023-05-01T11:12:12.599Z,19.99
2023-05-01T11:13:12.570Z,19.98
2023-05-01T11:14:12.567Z,19.96
2023-05-01T11:15:12.583Z,20.03
2023-05-01T11:16:12.648Z,20.06
2023-05-01T11:17:12.581Z,20.13
2023-05-01T11:18:12.581Z,20.14
2023-05-01T11:19:12.553Z,20.20
2023-05-01T11:20:14.402Z,20.21
2023-05-01T11:21:12.496Z,20.14
2023-05-01T11:22:12.481Z,20.08
2023-05-01T11:23:12.458Z,20.06
2023-05-01T11:24:12.460Z,20.03
2023-05-01T11:25:12.591Z,19.96
2023-05-01T11:26:12.451Z,19.88
2023-05-01T11:27:12.458Z,19.77
2023-05-01T11:28:12.424Z,19.69
2023-05-01T11:29:12.411Z,19.65
2023-05-01T11:30:12.407Z,19.63
2023-05-01T11:31:12.570Z,19.68
2023-05-01T11:32:12.394Z,19.68
2023-05-01T11:33:12.385Z,19.63
2023-05-01T11:34:12.446Z,19.51
2023-05-01T11:35:12.347Z,19.40
2023-05-01T11:36:12.397Z,19.39
2023-05-01T11:37:12.606Z,19.44
2023-05-01T11:38:12.300Z,19.44
2023-05-01T11:39:12.292Z,19.47
2023-05-01T11:40:12.294Z,19.40
2023-05-01T11:41:12.259Z,19.41
2023-05-01T11:42:12.320Z,19.40
2023-05-01T11:43:12.239Z,19.41
2023-05-01T11:44:12.494Z,19.48
2023-05-01T11:45:12.310Z,19.62
2023-05-01T11:46:12.543Z,19.59
2023-05-01T11:47:12.208Z,19.71
2023-05-01T11:48:12.234Z,19.77
2023-05-01T11:49:12.216Z,19.81
2023-05-01T11:50:12.224Z,19.98
2023-05-01T11:51:12.140Z,20.11
2023-05-01T11:52:12.186Z,20.11
2023-05-01T11:53:12.152Z,20.05
2023-05-01T11:54:13.652Z,19.88
2023-05-01T11:55:12.164Z,19.71
2023-05-01T11:56:23.041Z,19.59
2023-05-01T11:57:13.089Z,19.46
2023-05-01T11:58:12.093Z,19.48
2023-05-01T11:59:12.066Z,19.61
2023-05-01T12:00:12.060Z,19.56
2023-05-01T12:01:12.047Z,19.66
2023-05-01T12:02:12.094Z,19.77
2023-05-01T12:03:12.588Z,19.80
2023-05-01T12:04:12.094Z,19.81
2023-05-01T12:05:12.176Z,19.63
2023-05-01T12:06:12.144Z,19.48
2023-05-01T12:07:11.973Z,19.47
2023-05-01T12:08:11.957Z,19.37
2023-05-01T12:09:11.959Z,19.44
2023-05-01T12:10:11.939Z,19.51
2023-05-01T12:11:11.947Z,19.63
2023-05-01T12:12:11.922Z,19.73
2023-05-01T12:13:11.898Z,19.76
2023-05-01T12:14:11.898Z,19.74
2023-05-01T12:15:11.940Z,19.63
2023-05-01T12:16:11.898Z,19.56
2023-05-01T12:17:11.991Z,19.61
2023-05-01T12:18:11.901Z,19.68
2023-05-01T12:19:11.834Z,19.44
2023-05-01T12:20:11.819Z,19.54
2023-05-01T12:21:11.834Z,19.66
2023-05-01T12:22:11.835Z,19.68
2023-05-01T12:23:11.838Z,19.66
2023-05-01T12:24:11.802Z,19.78
2023-05-01T12:25:11.896Z,19.76
2023-05-01T12:26:11.764Z,19.73
2023-05-01T12:27:11.787Z,19.88
2023-05-01T12:28:11.731Z,19.92
2023-05-01T12:29:11.766Z,19.96
2023-05-01T12:30:11.712Z,19.98
2023-05-01T12:31:11.756Z,20.02
2023-05-01T12:32:11.799Z,20.03
2023-05-01T12:33:11.792Z,20.13
2023-05-01T12:34:11.710Z,19.84
2023-05-01T12:35:11.677Z,19.95
2023-05-01T12:36:11.729Z,19.96
2023-05-01T12:37:19.997Z,20.08
2023-05-01T12:38:11.600Z,20.14
2023-05-01T12:39:11.608Z,20.23
2023-05-01T12:40:11.588Z,20.33
2023-05-01T12:41:11.621Z,20.43
2023-05-01T12:42:11.584Z,20.50
2023-05-01T12:43:11.570Z,20.58
2023-05-01T12:44:11.607Z,20.62
2023-05-01T12:45:11.574Z,20.72
2023-05-01T12:46:11.649Z,20.80
2023-05-01T12:47:11.524Z,20.84
2023-05-01T12:48:11.565Z,20.99
2023-05-01T12:49:11.506Z,21.03
2023-05-01T12:50:11.512Z,21.01
2023-05-01T12:51:11.504Z,20.87
2023-05-01T12:52:11.468Z,20.80
2023-05-01T12:53:11.464Z,20.77
2023-05-01T12:54:11.518Z,20.79
2023-05-01T12:55:11.435Z,20.88
2023-05-01T12:56:11.461Z,21.01